createdAt,value
2023-03-11T00:00:17.261Z,0.00
2023-03-11T00:01:17.344Z,0.00
2023-03-11T00:02:17.496Z,0.00
2023-03-11T00:03:17.523Z,0.00
2023-03-11T00:04:17.592Z,0.00
2023-03-11T00:05:17.728Z,0.00
2023-03-11T00:06:17.735Z,0.00
2023-03-11T00:07:17.787Z,0.00
2023-03-11T00:08:17.858Z,0.00
2023-03-11T00:09:17.947Z,0.00
2023-03-11T00:10:18.002Z,0.00
2023-03-11T00:11:18.051Z,0.00
2023-03-11T00:12:18.142Z,0.00
2023-03-11T00:13:18.214Z,0.00
2023-03-11T00:14:18.311Z,0.00
2023-03-11T00:15:18.345Z,0.00
2023-03-11T00:16:18.493Z,0.00
2023-03-11T00:17:18.493Z,0.00
2023-03-11T00:18:18.580Z,0.00
2023-03-11T00:19:18.699Z,0.00
2023-03-11T00:20:18.736Z,0.00
2023-03-11T00:21:18.830Z,0.00
2023-03-11T00:22:18.907Z,0.00
2023-03-11T00:23:18.998Z,0.00
2023-03-11T00:24:19.069Z,0.00
2023-03-11T00:25:19.129Z,0.00
2023-03-11T00:26:19.201Z,0.00
2023-03-11T00:27:19.274Z,0.00
2023-03-11T00:28:19.375Z,0.00
2023-03-11T00:29:19.482Z,0.00
2023-03-11T00:30:19.559Z,0.00
2023-03-11T00:31:19.716Z,0.00
2023-03-11T00:32:19.777Z,0.00
2023-03-11T00:33:19.793Z,0.00
2023-03-11T00:34:19.899Z,0.00
2023-03-11T00:35:19.936Z,0.00
2023-03-11T00:36:20.032Z,0.00
2023-03-11T00:37:20.109Z,0.00
2023-03-11T00:38:20.215Z,0.00
2023-03-11T00:39:20.285Z,0.00
2023-03-11T00:40:20.327Z,0.00
2023-03-11T00:41:20.411Z,0.00
2023-03-11T00:42:20.501Z,0.00
2023-03-11T00:43:20.575Z,0.00
2023-03-11T00:44:20.687Z,0.00
2023-03-11T00:45:20.710Z,0.00
2023-03-11T00:46:20.879Z,0.00
2023-03-11T00:47:20.889Z,0.00
2023-03-11T00:48:20.975Z,0.00
2023-03-11T00:49:21.052Z,0.00
2023-03-11T00:50:21.133Z,0.00
2023-03-11T00:51:21.214Z,0.00
2023-03-11T00:52:21.309Z,0.00
2023-03-11T00:53:21.374Z,0.00
2023-03-11T00:54:21.499Z,0.00
2023-03-11T00:55:21.549Z,0.00
2023-03-11T00:56:21.650Z,0.00
2023-03-11T00:57:21.746Z,0.00
2023-03-11T00:58:21.811Z,0.00
2023-03-11T00:59:21.924Z,0.00
2023-03-11T01:00:21.994Z,0.00
2023-03-11T01:01:22.221Z,0.00
2023-03-11T01:02:22.167Z,0.00
2023-03-11T01:03:22.275Z,0.00
2023-03-11T01:04:22.447Z,0.00
2023-03-11T01:05:22.411Z,0.00
2023-03-11T01:06:23.415Z,0.00
2023-03-11T01:07:22.600Z,0.00
2023-03-11T01:08:22.677Z,0.00
2023-03-11T01:09:22.782Z,0.00
2023-03-11T01:10:22.872Z,0.00
2023-03-11T01:11:22.985Z,0.00
2023-03-11T01:12:23.056Z,0.00
2023-03-11T01:13:23.165Z,0.00
2023-03-11T01:14:23.235Z,0.00
2023-03-11T01:15:23.284Z,0.00
2023-03-11T01:16:23.485Z,0.00
2023-03-11T01:17:23.457Z,0.00
2023-03-11T01:18:23.563Z,0.00
2023-03-11T01:19:23.642Z,0.00
2023-03-11T01:20:23.746Z,0.00
2023-03-11T01:21:23.830Z,0.00
2023-03-11T01:22:23.943Z,0.00
2023-03-11T01:23:24.011Z,0.00
2023-03-11T01:24:24.113Z,0.00
2023-03-11T01:25:24.193Z,0.00
2023-03-11T01:26:24.233Z,0.00
2023-03-11T01:27:24.283Z,0.00
2023-03-11T01:28:24.398Z,0.00
2023-03-11T01:29:24.491Z,0.00
2023-03-11T01:30:24.573Z,0.00
2023-03-11T01:31:24.711Z,0.00
2023-03-11T01:32:24.728Z,0.00
2023-03-11T01:33:24.756Z,0.00
2023-03-11T01:34:24.897Z,0.00
2023-03-11T01:35:24.936Z,0.00
2023-03-11T01:36:24.999Z,0.00
2023-03-11T01:37:25.092Z,0.00
2023-03-11T01:38:25.190Z,0.00
2023-03-11T01:39:25.295Z,0.00
2023-03-11T01:40:25.396Z,0.00
2023-03-11T01:41:25.451Z,0.00
2023-03-11T01:42:25.550Z,0.00
2023-03-11T01:43:25.607Z,0.00
2023-03-11T01:44:25.785Z,0.00
2023-03-11T01:45:25.795Z,0.00
2023-03-11T01:46:25.987Z,0.00
2023-03-11T01:47:25.972Z,0.00
2023-03-11T01:48:26.038Z,0.00
2023-03-11T01:49:26.161Z,0.00
2023-03-11T01:50:26.200Z,0.00
2023-03-11T01:51:26.303Z,0.00
2023-03-11T01:52:26.359Z,0.00
2023-03-11T01:53:26.441Z,0.00
2023-03-11T01:54:26.556Z,0.00
2023-03-11T01:55:26.640Z,0.00
2023-03-11T01:56:26.749Z,0.00
2023-03-11T01:57:26.802Z,0.00
2023-03-11T01:58:26.870Z,0.00
2023-03-11T01:59:27.033Z,0.00
2023-03-11T02:00:27.099Z,0.00
2023-03-11T02:01:27.166Z,0.00
2023-03-11T02:02:27.279Z,0.00
2023-03-11T02:03:27.292Z,0.00
2023-03-11T02:04:27.391Z,0.00
2023-03-11T02:05:27.501Z,0.00
2023-03-11T02:06:27.632Z,0.00
2023-03-11T02:07:27.671Z,0.00
2023-03-11T02:08:27.768Z,0.00
2023-03-11T02:09:27.892Z,0.00
2023-03-11T02:10:27.987Z,0.00
2023-03-11T02:11:28.070Z,0.00
2023-03-11T02:12:28.113Z,0.00
2023-03-11T02:13:28.202Z,0.00
2023-03-11T02:14:28.442Z,0.00
2023-03-11T02:15:28.451Z,0.00
2023-03-11T02:16:28.514Z,0.00
2023-03-11T02:17:28.544Z,0.00
2023-03-11T02:18:28.666Z,0.00
2023-03-11T02:19:28.721Z,0.00
2023-03-11T02:20:28.816Z,0.00
2023-03-11T02:21:28.948Z,0.00
2023-03-11T02:22:28.999Z,0.00
2023-03-11T02:23:29.116Z,0.00
2023-03-11T02:24:29.212Z,0.00
2023-03-11T02:25:29.283Z,0.00
2023-03-11T02:26:29.381Z,0.00
2023-03-11T02:27:29.482Z,0.00
2023-03-11T02:28:29.597Z,0.00
2023-03-11T02:29:29.685Z,0.00
2023-03-11T02:30:29.731Z,0.00
2023-03-11T02:31:29.941Z,0.00
2023-03-11T02:32:29.970Z,0.00
2023-03-11T02:33:29.981Z,0.00
2023-03-11T02:34:30.094Z,0.00
2023-03-11T02:35:30.178Z,0.00
2023-03-11T02:36:30.269Z,0.00
2023-03-11T02:37:30.375Z,0.00
2023-03-11T02:38:30.479Z,0.00
2023-03-11T02:39:30.526Z,0.00
2023-03-11T02:40:30.613Z,0.00
2023-03-11T02:41:30.677Z,0.00
2023-03-11T02:42:30.794Z,0.00
2023-03-11T02:43:30.883Z,0.00
2023-03-11T02:44:30.969Z,0.00
2023-03-11T02:45:31.065Z,0.00
2023-03-11T02:46:31.239Z,0.00
2023-03-11T02:47:31.259Z,0.00
2023-03-11T02:48:31.361Z,0.00
2023-03-11T02:49:31.419Z,0.00
2023-03-11T02:50:31.570Z,0.00
2023-03-11T02:51:31.796Z,0.00
2023-03-11T02:52:32.628Z,0.00
2023-03-11T02:53:31.933Z,0.00
2023-03-11T02:54:31.956Z,0.00
2023-03-11T02:55:31.946Z,0.00
2023-03-11T02:56:32.035Z,0.00
2023-03-11T02:57:32.100Z,0.00
2023-03-11T02:58:32.241Z,0.00
2023-03-11T02:59:32.325Z,0.00
2023-03-11T03:00:32.469Z,0.00
2023-03-11T03:01:32.476Z,0.00
2023-03-11T03:02:32.522Z,0.00
2023-03-11T03:03:32.641Z,0.00
2023-03-11T03:04:32.885Z,0.00
2023-03-11T03:05:32.797Z,0.00
2023-03-11T03:06:32.894Z,0.00
2023-03-11T03:07:32.979Z,0.00
2023-03-11T03:08:33.161Z,0.00
2023-03-11T03:09:33.177Z,0.00
2023-03-11T03:10:33.256Z,0.00
2023-03-11T03:11:33.367Z,0.00
2023-03-11T03:12:33.426Z,0.00
2023-03-11T03:13:33.552Z,0.00
2023-03-11T03:14:33.603Z,0.00
2023-03-11T03:15:33.739Z,0.00
2023-03-11T03:16:33.768Z,0.00
2023-03-11T03:17:33.867Z,0.00
2023-03-11T03:18:33.976Z,0.00
2023-03-11T03:19:34.010Z,0.00
2023-03-11T03:20:34.084Z,0.00
2023-03-11T03:21:34.241Z,0.00
2023-03-11T03:22:34.275Z,0.00
2023-03-11T03:23:34.371Z,0.00
2023-03-11T03:24:34.458Z,0.00
2023-03-11T03:25:34.518Z,0.00
2023-03-11T03:26:34.634Z,0.00
2023-03-11T03:27:34.693Z,0.00
2023-03-11T03:28:34.790Z,0.00
2023-03-11T03:29:34.842Z,0.00
2023-03-11T03:30:34.988Z,0.00
2023-03-11T03:31:35.016Z,0.00
2023-03-11T03:32:35.142Z,0.00
2023-03-11T03:33:35.165Z,0.00
2023-03-11T03:34:35.288Z,0.00
2023-03-11T03:35:35.382Z,0.00
2023-03-11T03:36:35.468Z,0.00
2023-03-11T03:37:35.600Z,0.00
2023-03-11T03:38:35.666Z,0.00
2023-03-11T03:39:35.776Z,0.00
2023-03-11T03:40:35.809Z,0.00
2023-03-11T03:41:35.925Z,0.00
2023-03-11T03:42:35.972Z,0.00
2023-03-11T03:43:36.084Z,0.00
2023-03-11T03:47:07.165Z,0.00
2023-03-11T03:48:08.192Z,0.00
2023-03-11T03:49:08.273Z,0.00
2023-03-11T03:50:08.331Z,0.00
2023-03-11T03:51:08.402Z,0.00
2023-03-11T03:52:08.460Z,0.00
2023-03-11T03:53:08.532Z,0.00
2023-03-11T03:54:08.789Z,0.00
2023-03-11T03:55:08.680Z,0.00
2023-03-11T03:56:08.750Z,0.00
2023-03-11T03:57:08.837Z,0.00
2023-03-11T03:58:08.913Z,0.00
2023-03-11T03:59:08.982Z,0.00
2023-03-11T04:00:09.120Z,0.00
2023-03-11T04:01:09.135Z,0.00
2023-03-11T04:02:09.254Z,0.00
2023-03-11T04:03:09.287Z,0.00
2023-03-11T04:04:09.362Z,0.00
2023-03-11T04:05:09.427Z,0.00
2023-03-11T04:06:09.516Z,0.00
2023-03-11T04:07:09.607Z,0.00
2023-03-11T04:08:09.665Z,0.00
2023-03-11T04:09:09.745Z,0.00
2023-03-11T04:10:09.813Z,0.00
2023-03-11T04:11:09.880Z,0.00
2023-03-11T04:12:09.944Z,0.00
2023-03-11T08:13:35.650Z,44.00
2023-03-11T08:14:36.665Z,44.00
2023-03-11T08:15:36.771Z,40.00
2023-03-11T08:16:36.853Z,40.00
2023-03-11T08:17:36.954Z,40.00
2023-03-11T08:18:37.068Z,48.00
2023-03-11T08:19:37.170Z,52.00
2023-03-11T08:20:37.205Z,52.00
2023-03-11T08:21:37.287Z,52.00
2023-03-11T08:22:43.399Z,52.00
2023-03-11T08:23:37.466Z,56.00
2023-03-11T08:24:37.584Z,48.00
2023-03-11T08:25:37.677Z,48.00
2023-03-11T08:26:37.768Z,48.00
2023-03-11T08:27:37.911Z,52.00
2023-03-11T08:28:37.915Z,56.00
2023-03-11T08:29:38.028Z,60.00
2023-03-11T08:30:38.105Z,64.00
2023-03-11T08:31:38.402Z,68.00
2023-03-11T08:32:38.354Z,72.00
2023-03-11T08:33:38.394Z,64.00
2023-03-11T08:34:38.451Z,56.00
2023-03-11T08:35:38.581Z,64.00
2023-03-11T08:36:38.604Z,96.00
2023-03-11T08:37:38.688Z,100.00
2023-03-11T08:38:38.839Z,104.00
2023-03-11T08:39:38.920Z,140.00
2023-03-11T10:17:54.619Z,248.00
2023-03-11T10:36:42.793Z,240.00
2023-03-11T10:37:49.657Z,248.00
2023-03-11T10:38:43.884Z,228.00
2023-03-11T10:39:43.914Z,232.00
2023-03-11T10:40:43.947Z,232.00
2023-03-11T10:41:44.001Z,228.00
2023-03-11T10:42:44.056Z,228.00
2023-03-11T10:43:44.140Z,228.00
2023-03-11T10:44:44.187Z,232.00
2023-03-11T10:45:44.256Z,228.00
2023-03-11T10:46:44.287Z,232.00
2023-03-11T10:47:44.349Z,228.00
2023-03-11T10:48:44.450Z,232.00
2023-03-11T10:49:44.471Z,236.00
2023-03-11T10:50:44.563Z,232.00
2023-03-11T10:51:44.588Z,220.00
2023-03-11T10:52:44.633Z,236.00
2023-03-11T10:53:44.725Z,216.00
2023-03-11T10:54:44.751Z,192.00
